sensor_id;sensor_type;location;lat;lon;timestamp;P1;durP1;ratioP1;P2;durP2;ratioP2
29568;SDS011;16501;51.462;14.346;2023-06-22T00:01:45;13.10;;;8.55;;
29568;SDS011;16501;51.462;14.346;2023-06-22T00:04:11;14.43;;;9.32;;
29568;SDS011;16501;51.462;14.346;2023-06-22T00:06:36;13.07;;;9.55;;
29568;SDS011;16501;51.462;14.346;2023-06-22T00:09:01;13.82;;;9.65;;
29568;SDS011;16501;51.462;14.346;2023-06-22T00:11:26;17.35;;;9.07;;
29568;SDS011;16501;51.462;14.346;2023-06-22T00:13:52;14.60;;;9.88;;
29568;SDS011;16501;51.462;14.346;2023-06-22T00:16:18;14.70;;;9.05;;
29568;SDS011;16501;51.462;14.346;2023-06-22T00:18:43;12.00;;;9.25;;
29568;SDS011;16501;51.462;14.346;2023-06-22T00:21:11;13.45;;;9.55;;
29568;SDS011;16501;51.462;14.346;2023-06-22T00:23:37;12.15;;;9.13;;
29568;SDS011;16501;51.462;14.346;2023-06-22T00:26:02;10.73;;;9.07;;
29568;SDS011;16501;51.462;14.346;2023-06-22T00:28:28;13.80;;;9.98;;
29568;SDS011;16501;51.462;14.346;2023-06-22T00:30:53;11.88;;;9.68;;
29568;SDS011;16501;51.462;14.346;2023-06-22T00:33:19;12.45;;;10.27;;
29568;SDS011;16501;51.462;14.346;2023-06-22T00:35:44;11.32;;;9.60;;
29568;SDS011;16501;51.462;14.346;2023-06-22T00:38:09;10.57;;;9.57;;
29568;SDS011;16501;51.462;14.346;2023-06-22T00:40:35;12.15;;;9.55;;
29568;SDS011;16501;51.462;14.346;2023-06-22T00:43:00;10.10;;;8.65;;
29568;SDS011;16501;51.462;14.346;2023-06-22T00:45:28;14.68;;;10.10;;
29568;SDS011;16501;51.462;14.346;2023-06-22T00:47:54;10.80;;;9.65;;
29568;SDS011;16501;51.462;14.346;2023-06-22T00:50:24;14.80;;;9.63;;
29568;SDS011;16501;51.462;14.346;2023-06-22T00:52:52;17.17;;;9.57;;
29568;SDS011;16501;51.462;14.346;2023-06-22T00:55:21;11.63;;;9.68;;
29568;SDS011;16501;51.462;14.346;2023-06-22T00:57:47;15.65;;;10.50;;
29568;SDS011;16501;51.462;14.346;2023-06-22T01:00:13;13.00;;;9.45;;
29568;SDS011;16501;51.462;14.346;2023-06-22T01:02:41;12.02;;;9.75;;
29568;SDS011;16501;51.462;14.346;2023-06-22T01:05:09;13.30;;;9.55;;
29568;SDS011;16501;51.462;14.346;2023-06-22T01:07:35;14.70;;;10.68;;
29568;SDS011;16501;51.462;14.346;2023-06-22T01:10:25;12.23;;;10.38;;
29568;SDS011;16501;51.462;14.346;2023-06-22T01:13:04;11.48;;;9.35;;
29568;SDS011;16501;51.462;14.346;2023-06-22T01:18:05;11.27;;;9.27;;
29568;SDS011;16501;51.462;14.346;2023-06-22T01:20:32;13.63;;;9.48;;
29568;SDS011;16501;51.462;14.346;2023-06-22T01:25:36;11.48;;;9.02;;
29568;SDS011;16501;51.462;14.346;2023-06-22T01:31:06;10.05;;;8.73;;
29568;SDS011;16501;51.462;14.346;2023-06-22T01:33:34;13.60;;;10.10;;
29568;SDS011;16501;51.462;14.346;2023-06-22T01:36:02;10.85;;;9.18;;
29568;SDS011;16501;51.462;14.346;2023-06-22T01:38:28;12.88;;;9.90;;
29568;SDS011;16501;51.462;14.346;2023-06-22T01:40:56;10.50;;;9.18;;
29568;SDS011;16501;51.462;14.346;2023-06-22T01:43:22;12.38;;;9.93;;
29568;SDS011;16501;51.462;14.346;2023-06-22T01:45:50;12.82;;;10.10;;
29568;SDS011;16501;51.462;14.346;2023-06-22T01:48:16;12.05;;;10.32;;
29568;SDS011;16501;51.462;14.346;2023-06-22T01:50:42;13.90;;;11.05;;
29568;SDS011;16501;51.462;14.346;2023-06-22T01:53:08;14.20;;;10.75;;
29568;SDS011;16501;51.462;14.346;2023-06-22T01:55:33;12.02;;;10.80;;
29568;SDS011;16501;51.462;14.346;2023-06-22T01:58:01;11.55;;;10.20;;
29568;SDS011;16501;51.462;14.346;2023-06-22T02:00:26;15.55;;;10.38;;
29568;SDS011;16501;51.462;14.346;2023-06-22T02:02:57;14.38;;;10.48;;
29568;SDS011;16501;51.462;14.346;2023-06-22T02:05:28;12.43;;;10.95;;
29568;SDS011;16501;51.462;14.346;2023-06-22T02:10:40;13.50;;;10.15;;
29568;SDS011;16501;51.462;14.346;2023-06-22T02:13:07;12.38;;;10.55;;
29568;SDS011;16501;51.462;14.346;2023-06-22T02:15:35;10.52;;;9.43;;
29568;SDS011;16501;51.462;14.346;2023-06-22T02:18:14;14.60;;;11.23;;
29568;SDS011;16501;51.462;14.346;2023-06-22T02:20:40;11.75;;;10.48;;
29568;SDS011;16501;51.462;14.346;2023-06-22T02:23:06;12.60;;;11.23;;
29568;SDS011;16501;51.462;14.346;2023-06-22T02:25:32;12.73;;;10.43;;
29568;SDS011;16501;51.462;14.346;2023-06-22T02:27:58;12.30;;;10.95;;
29568;SDS011;16501;51.462;14.346;2023-06-22T02:30:23;15.60;;;11.60;;
29568;SDS011;16501;51.462;14.346;2023-06-22T02:32:48;15.43;;;11.73;;
29568;SDS011;16501;51.462;14.346;2023-06-22T02:35:14;17.90;;;12.15;;
29568;SDS011;16501;51.462;14.346;2023-06-22T02:37:39;12.85;;;11.43;;
29568;SDS011;16501;51.462;14.346;2023-06-22T02:40:06;16.20;;;12.23;;
29568;SDS011;16501;51.462;14.346;2023-06-22T02:42:35;14.63;;;11.57;;
29568;SDS011;16501;51.462;14.346;2023-06-22T02:45:01;13.25;;;10.50;;
29568;SDS011;16501;51.462;14.346;2023-06-22T02:47:26;18.00;;;11.35;;
29568;SDS011;16501;51.462;14.346;2023-06-22T02:49:52;15.00;;;12.23;;
29568;SDS011;16501;51.462;14.346;2023-06-22T02:52:17;14.27;;;12.00;;
29568;SDS011;16501;51.462;14.346;2023-06-22T02:54:42;14.32;;;11.85;;
29568;SDS011;16501;51.462;14.346;2023-06-22T02:57:10;15.82;;;13.00;;
29568;SDS011;16501;51.462;14.346;2023-06-22T02:59:38;14.80;;;12.55;;
29568;SDS011;16501;51.462;14.346;2023-06-22T03:02:05;12.13;;;10.93;;
29568;SDS011;16501;51.462;14.346;2023-06-22T03:04:34;14.85;;;11.40;;
29568;SDS011;16501;51.462;14.346;2023-06-22T03:07:00;16.80;;;12.30;;
29568;SDS011;16501;51.462;14.346;2023-06-22T03:09:26;17.63;;;12.02;;
29568;SDS011;16501;51.462;14.346;2023-06-22T03:11:52;17.02;;;12.68;;
29568;SDS011;16501;51.462;14.346;2023-06-22T03:14:18;12.88;;;11.30;;
29568;SDS011;16501;51.462;14.346;2023-06-22T03:16:43;17.10;;;11.45;;
29568;SDS011;16501;51.462;14.346;2023-06-22T03:19:09;11.75;;;10.38;;
29568;SDS011;16501;51.462;14.346;2023-06-22T03:21:34;14.98;;;11.20;;
29568;SDS011;16501;51.462;14.346;2023-06-22T03:23:59;13.05;;;10.70;;
29568;SDS011;16501;51.462;14.346;2023-06-22T03:26:25;14.77;;;11.52;;
29568;SDS011;16501;51.462;14.346;2023-06-22T03:28:59;13.15;;;11.48;;
29568;SDS011;16501;51.462;14.346;2023-06-22T03:31:24;18.40;;;11.82;;
29568;SDS011;16501;51.462;14.346;2023-06-22T03:33:50;15.38;;;12.65;;
29568;SDS011;16501;51.462;14.346;2023-06-22T03:36:16;12.95;;;11.40;;
29568;SDS011;16501;51.462;14.346;2023-06-22T03:38:48;14.20;;;11.27;;
29568;SDS011;16501;51.462;14.346;2023-06-22T03:41:14;14.35;;;12.82;;
29568;SDS011;16501;51.462;14.346;2023-06-22T03:43:40;15.25;;;11.43;;
29568;SDS011;16501;51.462;14.346;2023-06-22T03:46:05;13.75;;;12.02;;
29568;SDS011;16501;51.462;14.346;2023-06-22T03:48:31;23.67;;;13.75;;
29568;SDS011;16501;51.462;14.346;2023-06-22T03:50:56;13.57;;;11.88;;
29568;SDS011;16501;51.462;14.346;2023-06-22T03:53:21;14.20;;;11.90;;
29568;SDS011;16501;51.462;14.346;2023-06-22T03:55:50;14.90;;;12.45;;
29568;SDS011;16501;51.462;14.346;2023-06-22T03:58:16;14.35;;;11.60;;
29568;SDS011;16501;51.462;14.346;2023-06-22T04:00:43;15.40;;;12.50;;
29568;SDS011;16501;51.462;14.346;2023-06-22T04:03:09;20.77;;;12.60;;
29568;SDS011;16501;51.462;14.346;2023-06-22T04:05:34;15.13;;;12.98;;
29568;SDS011;16501;51.462;14.346;2023-06-22T04:07:59;15.57;;;12.60;;
29568;SDS011;16501;51.462;14.346;2023-06-22T04:10:25;16.33;;;12.38;;
29568;SDS011;16501;51.462;14.346;2023-06-22T04:12:50;14.70;;;12.80;;
29568;SDS011;16501;51.462;14.346;2023-06-22T04:15:15;19.33;;;13.93;;
29568;SDS011;16501;51.462;14.346;2023-06-22T04:17:40;18.48;;;12.98;;
29568;SDS011;16501;51.462;14.346;2023-06-22T04:20:06;17.95;;;13.48;;
29568;SDS011;16501;51.462;14.346;2023-06-22T04:22:32;20.63;;;13.18;;
29568;SDS011;16501;51.462;14.346;2023-06-22T04:24:57;23.35;;;14.93;;
29568;SDS011;16501;51.462;14.346;2023-06-22T04:27:22;21.92;;;15.82;;
29568;SDS011;16501;51.462;14.346;2023-06-22T04:29:48;22.77;;;16.92;;
29568;SDS011;16501;51.462;14.346;2023-06-22T04:32:14;27.40;;;17.35;;
29568;SDS011;16501;51.462;14.346;2023-06-22T04:34:40;23.70;;;17.55;;
29568;SDS011;16501;51.462;14.346;2023-06-22T04:37:05;20.48;;;16.08;;
29568;SDS011;16501;51.462;14.346;2023-06-22T04:39:30;21.17;;;16.70;;
29568;SDS011;16501;51.462;14.346;2023-06-22T04:41:56;25.70;;;16.77;;
29568;SDS011;16501;51.462;14.346;2023-06-22T04:44:25;22.92;;;16.25;;
29568;SDS011;16501;51.462;14.346;2023-06-22T04:46:50;23.48;;;17.60;;
29568;SDS011;16501;51.462;14.346;2023-06-22T04:49:19;32.05;;;17.75;;
29568;SDS011;16501;51.462;14.346;2023-06-22T04:51:45;19.70;;;16.95;;
29568;SDS011;16501;51.462;14.346;2023-06-22T04:54:10;27.13;;;17.45;;
29568;SDS011;16501;51.462;14.346;2023-06-22T04:56:35;30.08;;;18.48;;
29568;SDS011;16501;51.462;14.346;2023-06-22T04:59:02;24.05;;;18.27;;
29568;SDS011;16501;51.462;14.346;2023-06-22T05:01:30;28.77;;;20.13;;
29568;SDS011;16501;51.462;14.346;2023-06-22T05:03:56;26.10;;;19.25;;
29568;SDS011;16501;51.462;14.346;2023-06-22T05:06:23;25.30;;;18.15;;
29568;SDS011;16501;51.462;14.346;2023-06-22T05:08:51;25.10;;;19.17;;
29568;SDS011;16501;51.462;14.346;2023-06-22T05:11:18;23.30;;;18.63;;
29568;SDS011;16501;51.462;14.346;2023-06-22T05:13:43;27.05;;;18.80;;
29568;SDS011;16501;51.462;14.346;2023-06-22T05:16:08;33.08;;;18.23;;
29568;SDS011;16501;51.462;14.346;2023-06-22T05:18:34;22.35;;;18.23;;
29568;SDS011;16501;51.462;14.346;2023-06-22T05:20:59;26.67;;;19.90;;
29568;SDS011;16501;51.462;14.346;2023-06-22T05:23:25;31.92;;;18.02;;
29568;SDS011;16501;51.462;14.346;2023-06-22T05:25:51;20.17;;;17.95;;
29568;SDS011;16501;51.462;14.346;2023-06-22T05:28:16;24.98;;;18.50;;
29568;SDS011;16501;51.462;14.346;2023-06-22T05:30:41;27.10;;;18.58;;
29568;SDS011;16501;51.462;14.346;2023-06-22T05:33:06;23.08;;;16.80;;
29568;SDS011;16501;51.462;14.346;2023-06-22T05:35:32;25.45;;;16.35;;
29568;SDS011;16501;51.462;14.346;2023-06-22T05:37:57;20.20;;;15.25;;
29568;SDS011;16501;51.462;14.346;2023-06-22T05:40:22;25.17;;;14.05;;
29568;SDS011;16501;51.462;14.346;2023-06-22T05:42:48;23.92;;;14.43;;
29568;SDS011;16501;51.462;14.346;2023-06-22T05:45:13;21.45;;;14.00;;
29568;SDS011;16501;51.462;14.346;2023-06-22T05:47:41;21.67;;;14.63;;
29568;SDS011;16501;51.462;14.346;2023-06-22T05:50:06;15.40;;;13.75;;
29568;SDS011;16501;51.462;14.346;2023-06-22T05:52:33;15.43;;;13.75;;
29568;SDS011;16501;51.462;14.346;2023-06-22T05:54:59;20.08;;;13.20;;
29568;SDS011;16501;51.462;14.346;2023-06-22T05:57:24;18.38;;;12.80;;
29568;SDS011;16501;51.462;14.346;2023-06-22T05:59:49;19.40;;;13.30;;
29568;SDS011;16501;51.462;14.346;2023-06-22T06:02:15;17.63;;;11.80;;
29568;SDS011;16501;51.462;14.346;2023-06-22T06:04:40;15.02;;;11.18;;
29568;SDS011;16501;51.462;14.346;2023-06-22T06:07:05;13.18;;;11.75;;
29568;SDS011;16501;51.462;14.346;2023-06-22T06:09:30;18.27;;;12.00;;
29568;SDS011;16501;51.462;14.346;2023-06-22T06:11:56;14.48;;;11.43;;
29568;SDS011;16501;51.462;14.346;2023-06-22T06:14:21;14.65;;;11.85;;
29568;SDS011;16501;51.462;14.346;2023-06-22T06:16:48;13.73;;;12.27;;
29568;SDS011;16501;51.462;14.346;2023-06-22T06:19:13;16.88;;;12.18;;
29568;SDS011;16501;51.462;14.346;2023-06-22T06:21:38;13.68;;;11.90;;
29568;SDS011;16501;51.462;14.346;2023-06-22T06:24:04;13.52;;;12.05;;
29568;SDS011;16501;51.462;14.346;2023-06-22T06:26:29;16.35;;;12.07;;
29568;SDS011;16501;51.462;14.346;2023-06-22T06:28:57;12.75;;;11.23;;
29568;SDS011;16501;51.462;14.346;2023-06-22T06:31:23;16.92;;;12.15;;
29568;SDS011;16501;51.462;14.346;2023-06-22T06:33:49;19.05;;;12.73;;
29568;SDS011;16501;51.462;14.346;2023-06-22T06:36:14;13.25;;;11.35;;
29568;SDS011;16501;51.462;14.346;2023-06-22T06:38:40;16.42;;;12.32;;
29568;SDS011;16501;51.462;14.346;2023-06-22T06:41:05;15.18;;;11.40;;
29568;SDS011;16501;51.462;14.346;2023-06-22T06:43:30;15.68;;;11.63;;
29568;SDS011;16501;51.462;14.346;2023-06-22T06:45:56;13.57;;;11.23;;
29568;SDS011;16501;51.462;14.346;2023-06-22T06:48:21;14.25;;;11.00;;
29568;SDS011;16501;51.462;14.346;2023-06-22T06:50:46;15.10;;;10.15;;
29568;SDS011;16501;51.462;14.346;2023-06-22T06:53:12;12.98;;;9.80;;
29568;SDS011;16501;51.462;14.346;2023-06-22T06:55:37;14.98;;;10.70;;
29568;SDS011;16501;51.462;14.346;2023-06-22T06:58:02;12.05;;;9.73;;
29568;SDS011;16501;51.462;14.346;2023-06-22T07:00:32;15.43;;;10.25;;
29568;SDS011;16501;51.462;14.346;2023-06-22T07:02:57;12.00;;;9.65;;
29568;SDS011;16501;51.462;14.346;2023-06-22T07:05:23;14.55;;;9.88;;
29568;SDS011;16501;51.462;14.346;2023-06-22T07:07:48;10.73;;;9.48;;
29568;SDS011;16501;51.462;14.346;2023-06-22T07:10:14;10.52;;;9.48;;
29568;SDS011;16501;51.462;14.346;2023-06-22T07:12:40;14.73;;;10.00;;
29568;SDS011;16501;51.462;14.346;2023-06-22T07:15:06;12.63;;;9.65;;
29568;SDS011;16501;51.462;14.346;2023-06-22T07:17:36;13.43;;;10.45;;
29568;SDS011;16501;51.462;14.346;2023-06-22T07:20:02;13.38;;;10.35;;
29568;SDS011;16501;51.462;14.346;2023-06-22T07:22:33;11.98;;;9.32;;
29568;SDS011;16501;51.462;14.346;2023-06-22T07:24:58;11.82;;;9.48;;
29568;SDS011;16501;51.462;14.346;2023-06-22T07:27:23;14.13;;;10.43;;
29568;SDS011;16501;51.462;14.346;2023-06-22T07:29:49;16.38;;;9.95;;
29568;SDS011;16501;51.462;14.346;2023-06-22T07:32:14;14.88;;;10.23;;
29568;SDS011;16501;51.462;14.346;2023-06-22T07:34:40;14.80;;;10.90;;
29568;SDS011;16501;51.462;14.346;2023-06-22T07:37:06;11.93;;;10.68;;
29568;SDS011;16501;51.462;14.346;2023-06-22T07:39:31;13.93;;;11.02;;
29568;SDS011;16501;51.462;14.346;2023-06-22T07:41:56;13.23;;;9.35;;
29568;SDS011;16501;51.462;14.346;2023-06-22T07:44:22;20.97;;;11.13;;
29568;SDS011;16501;51.462;14.346;2023-06-22T07:46:47;10.98;;;9.63;;
29568;SDS011;16501;51.462;14.346;2023-06-22T07:49:12;12.55;;;10.52;;
29568;SDS011;16501;51.462;14.346;2023-06-22T07:51:37;11.55;;;10.02;;
29568;SDS011;16501;51.462;14.346;2023-06-22T07:54:03;14.77;;;10.38;;
29568;SDS011;16501;51.462;14.346;2023-06-22T07:56:28;12.60;;;9.93;;
29568;SDS011;16501;51.462;14.346;2023-06-22T07:58:53;13.10;;;10.18;;
29568;SDS011;16501;51.462;14.346;2023-06-22T08:01:19;19.67;;;10.43;;
29568;SDS011;16501;51.462;14.346;2023-06-22T08:03:47;15.52;;;10.73;;
29568;SDS011;16501;51.462;14.346;2023-06-22T08:06:15;13.73;;;10.43;;
29568;SDS011;16501;51.462;14.346;2023-06-22T08:08:41;13.98;;;11.00;;
29568;SDS011;16501;51.462;14.346;2023-06-22T08:11:07;14.45;;;10.88;;
29568;SDS011;16501;51.462;14.346;2023-06-22T08:13:32;15.55;;;11.63;;
29568;SDS011;16501;51.462;14.346;2023-06-22T08:15:58;20.17;;;10.20;;
29568;SDS011;16501;51.462;14.346;2023-06-22T08:18:23;14.87;;;10.87;;
29568;SDS011;16501;51.462;14.346;2023-06-22T08:20:49;11.70;;;10.07;;
29568;SDS011;16501;51.462;14.346;2023-06-22T08:23:14;13.30;;;9.68;;
29568;SDS011;16501;51.462;14.346;2023-06-22T08:25:40;14.70;;;10.30;;
29568;SDS011;16501;51.462;14.346;2023-06-22T08:28:05;11.52;;;9.25;;
29568;SDS011;16501;51.462;14.346;2023-06-22T08:30:30;12.32;;;9.50;;
29568;SDS011;16501;51.462;14.346;2023-06-22T08:32:55;17.40;;;9.20;;
29568;SDS011;16501;51.462;14.346;2023-06-22T08:35:24;11.05;;;8.82;;
29568;SDS011;16501;51.462;14.346;2023-06-22T08:37:49;12.63;;;8.95;;
29568;SDS011;16501;51.462;14.346;2023-06-22T08:40:19;11.50;;;8.77;;
29568;SDS011;16501;51.462;14.346;2023-06-22T08:42:45;10.18;;;9.00;;
29568;SDS011;16501;51.462;14.346;2023-06-22T08:45:11;9.82;;;8.45;;
29568;SDS011;16501;51.462;14.346;2023-06-22T08:47:37;9.93;;;8.55;;
29568;SDS011;16501;51.462;14.346;2023-06-22T08:50:02;11.50;;;9.40;;
29568;SDS011;16501;51.462;14.346;2023-06-22T08:52:28;10.57;;;8.68;;
29568;SDS011;16501;51.462;14.346;2023-06-22T08:54:53;9.60;;;8.60;;
29568;SDS011;16501;51.462;14.346;2023-06-22T08:57:19;11.82;;;9.55;;
29568;SDS011;16501;51.462;14.346;2023-06-22T08:59:44;12.65;;;8.65;;
29568;SDS011;16501;51.462;14.346;2023-06-22T09:02:09;10.20;;;9.23;;
29568;SDS011;16501;51.462;14.346;2023-06-22T09:04:35;9.70;;;8.52;;
29568;SDS011;16501;51.462;14.346;2023-06-22T09:07:03;10.90;;;8.23;;
29568;SDS011;16501;51.462;14.346;2023-06-22T09:09:28;9.25;;;7.85;;
29568;SDS011;16501;51.462;14.346;2023-06-22T09:11:54;10.50;;;8.27;;
29568;SDS011;16501;51.462;14.346;2023-06-22T09:14:19;10.87;;;7.20;;
29568;SDS011;16501;51.462;14.346;2023-06-22T09:16:44;10.93;;;9.40;;
29568;SDS011;16501;51.462;14.346;2023-06-22T09:19:10;9.13;;;7.97;;
29568;SDS011;16501;51.462;14.346;2023-06-22T09:21:35;9.55;;;7.95;;
29568;SDS011;16501;51.462;14.346;2023-06-22T09:24:01;10.38;;;8.30;;
29568;SDS011;16501;51.462;14.346;2023-06-22T09:26:26;10.18;;;7.90;;
29568;SDS011;16501;51.462;14.346;2023-06-22T09:28:51;10.25;;;8.85;;
29568;SDS011;16501;51.462;14.346;2023-06-22T09:31:17;9.82;;;8.82;;
29568;SDS011;16501;51.462;14.346;2023-06-22T09:33:42;12.07;;;8.60;;
29568;SDS011;16501;51.462;14.346;2023-06-22T09:36:07;9.82;;;8.73;;
29568;SDS011;16501;51.462;14.346;2023-06-22T09:38:36;10.15;;;8.43;;
29568;SDS011;16501;51.462;14.346;2023-06-22T09:41:01;9.50;;;8.20;;
29568;SDS011;16501;51.462;14.346;2023-06-22T09:43:27;9.47;;;8.47;;
29568;SDS011;16501;51.462;14.346;2023-06-22T09:45:53;9.75;;;8.45;;
29568;SDS011;16501;51.462;14.346;2023-06-22T09:48:18;9.35;;;8.38;;
29568;SDS011;16501;51.462;14.346;2023-06-22T09:50:43;12.30;;;8.93;;
29568;SDS011;16501;51.462;14.346;2023-06-22T09:53:09;11.30;;;9.15;;
29568;SDS011;16501;51.462;14.346;2023-06-22T09:55:34;10.75;;;9.30;;
29568;SDS011;16501;51.462;14.346;2023-06-22T09:57:59;10.73;;;8.90;;
29568;SDS011;16501;51.462;14.346;2023-06-22T10:00:24;15.40;;;9.27;;
29568;SDS011;16501;51.462;14.346;2023-06-22T10:02:51;9.30;;;8.25;;
29568;SDS011;16501;51.462;14.346;2023-06-22T10:05:17;10.00;;;8.38;;
29568;SDS011;16501;51.462;14.346;2023-06-22T10:07:42;11.27;;;8.65;;
29568;SDS011;16501;51.462;14.346;2023-06-22T10:10:08;9.90;;;8.90;;
29568;SDS011;16501;51.462;14.346;2023-06-22T10:12:34;10.30;;;9.25;;
29568;SDS011;16501;51.462;14.346;2023-06-22T10:15:00;10.25;;;7.90;;
29568;SDS011;16501;51.462;14.346;2023-06-22T10:17:25;9.77;;;7.78;;
29568;SDS011;16501;51.462;14.346;2023-06-22T10:19:50;12.63;;;8.37;;
29568;SDS011;16501;51.462;14.346;2023-06-22T10:22:16;10.30;;;8.15;;
29568;SDS011;16501;51.462;14.346;2023-06-22T10:24:41;9.75;;;8.75;;
29568;SDS011;16501;51.462;14.346;2023-06-22T10:27:10;8.98;;;7.18;;
29568;SDS011;16501;51.462;14.346;2023-06-22T10:29:35;13.52;;;8.30;;
29568;SDS011;16501;51.462;14.346;2023-06-22T10:32:01;9.50;;;8.27;;
29568;SDS011;16501;51.462;14.346;2023-06-22T10:34:26;14.30;;;7.80;;
29568;SDS011;16501;51.462;14.346;2023-06-22T10:36:51;9.37;;;7.63;;
29568;SDS011;16501;51.462;14.346;2023-06-22T10:39:16;10.23;;;8.60;;
29568;SDS011;16501;51.462;14.346;2023-06-22T10:41:42;8.88;;;8.05;;
29568;SDS011;16501;51.462;14.346;2023-06-22T10:44:07;9.63;;;8.00;;
29568;SDS011;16501;51.462;14.346;2023-06-22T10:46:33;11.30;;;8.10;;
29568;SDS011;16501;51.462;14.346;2023-06-22T10:48:58;11.17;;;7.73;;
29568;SDS011;16501;51.462;14.346;2023-06-22T10:51:24;12.82;;;8.25;;
29568;SDS011;16501;51.462;14.346;2023-06-22T10:53:50;12.57;;;7.90;;
29568;SDS011;16501;51.462;14.346;2023-06-22T10:56:16;9.60;;;7.93;;
29568;SDS011;16501;51.462;14.346;2023-06-22T10:58:42;8.30;;;7.38;;
29568;SDS011;16501;51.462;14.346;2023-06-22T11:01:08;10.80;;;7.45;;
29568;SDS011;16501;51.462;14.346;2023-06-22T11:03:33;9.85;;;7.55;;
29568;SDS011;16501;51.462;14.346;2023-06-22T11:05:58;14.10;;;7.33;;
29568;SDS011;16501;51.462;14.346;2023-06-22T11:08:23;9.73;;;8.03;;
29568;SDS011;16501;51.462;14.346;2023-06-22T11:10:50;9.03;;;8.17;;
29568;SDS011;16501;51.462;14.346;2023-06-22T11:13:16;11.68;;;7.65;;
29568;SDS011;16501;51.462;14.346;2023-06-22T11:15:41;10.18;;;7.53;;
29568;SDS011;16501;51.462;14.346;2023-06-22T11:18:06;8.00;;;7.20;;
29568;SDS011;16501;51.462;14.346;2023-06-22T11:20:32;9.73;;;7.93;;
29568;SDS011;16501;51.462;14.346;2023-06-22T11:22:59;8.65;;;7.75;;
29568;SDS011;16501;51.462;14.346;2023-06-22T11:25:24;11.07;;;8.60;;
29568;SDS011;16501;51.462;14.346;2023-06-22T11:27:50;12.20;;;7.80;;
29568;SDS011;16501;51.462;14.346;2023-06-22T11:30:18;9.93;;;8.00;;
29568;SDS011;16501;51.462;14.346;2023-06-22T11:32:43;8.50;;;7.55;;
29568;SDS011;16501;51.462;14.346;2023-06-22T11:35:08;10.18;;;7.35;;
29568;SDS011;16501;51.462;14.346;2023-06-22T11:37:34;10.17;;;7.10;;
29568;SDS011;16501;51.462;14.346;2023-06-22T11:39:59;9.48;;;8.25;;
29568;SDS011;16501;51.462;14.346;2023-06-22T11:42:24;13.53;;;7.70;;
29568;SDS011;16501;51.462;14.346;2023-06-22T11:44:50;8.55;;;7.63;;
29568;SDS011;16501;51.462;14.346;2023-06-22T11:47:15;11.55;;;7.50;;
29568;SDS011;16501;51.462;14.346;2023-06-22T11:49:41;9.27;;;7.32;;
29568;SDS011;16501;51.462;14.346;2023-06-22T11:52:06;7.90;;;7.10;;
29568;SDS011;16501;51.462;14.346;2023-06-22T11:54:31;9.57;;;7.18;;
29568;SDS011;16501;51.462;14.346;2023-06-22T11:56:56;12.02;;;7.72;;
29568;SDS011;16501;51.462;14.346;2023-06-22T11:59:22;7.30;;;6.60;;
29568;SDS011;16501;51.462;14.346;2023-06-22T12:01:47;9.05;;;7.50;;
29568;SDS011;16501;51.462;14.346;2023-06-22T12:04:14;8.70;;;7.27;;
29568;SDS011;16501;51.462;14.346;2023-06-22T12:06:39;12.05;;;7.40;;
29568;SDS011;16501;51.462;14.346;2023-06-22T12:09:07;8.43;;;7.00;;
29568;SDS011;16501;51.462;14.346;2023-06-22T12:11:32;8.68;;;6.82;;
29568;SDS011;16501;51.462;14.346;2023-06-22T12:13:57;9.75;;;7.88;;
29568;SDS011;16501;51.462;14.346;2023-06-22T12:16:26;10.15;;;7.47;;
29568;SDS011;16501;51.462;14.346;2023-06-22T12:18:52;7.55;;;6.68;;
29568;SDS011;16501;51.462;14.346;2023-06-22T12:21:17;8.02;;;7.22;;
29568;SDS011;16501;51.462;14.346;2023-06-22T12:23:42;7.80;;;7.10;;
29568;SDS011;16501;51.462;14.346;2023-06-22T12:26:07;8.27;;;7.10;;
29568;SDS011;16501;51.462;14.346;2023-06-22T12:28:33;9.13;;;7.60;;
29568;SDS011;16501;51.462;14.346;2023-06-22T12:30:58;8.10;;;7.30;;
29568;SDS011;16501;51.462;14.346;2023-06-22T12:33:23;13.67;;;7.53;;
29568;SDS011;16501;51.462;14.346;2023-06-22T12:35:48;9.10;;;7.13;;
29568;SDS011;16501;51.462;14.346;2023-06-22T12:38:14;9.95;;;8.20;;
29568;SDS011;16501;51.462;14.346;2023-06-22T12:40:41;14.90;;;8.20;;
29568;SDS011;16501;51.462;14.346;2023-06-22T12:43:07;10.07;;;7.70;;
29568;SDS011;16501;51.462;14.346;2023-06-22T12:45:32;11.85;;;7.63;;
29568;SDS011;16501;51.462;14.346;2023-06-22T12:47:58;9.15;;;7.65;;
29568;SDS011;16501;51.462;14.346;2023-06-22T12:50:24;10.23;;;8.07;;
29568;SDS011;16501;51.462;14.346;2023-06-22T12:52:50;8.70;;;7.80;;
29568;SDS011;16501;51.462;14.346;2023-06-22T12:55:15;10.70;;;7.50;;
29568;SDS011;16501;51.462;14.346;2023-06-22T12:57:40;10.73;;;7.23;;
29568;SDS011;16501;51.462;14.346;2023-06-22T13:00:05;11.17;;;7.17;;
29568;SDS011;16501;51.462;14.346;2023-06-22T13:02:33;11.90;;;7.88;;
29568;SDS011;16501;51.462;14.346;2023-06-22T13:04:58;13.73;;;7.78;;
29568;SDS011;16501;51.462;14.346;2023-06-22T13:07:23;8.23;;;7.40;;
29568;SDS011;16501;51.462;14.346;2023-06-22T13:09:48;8.43;;;7.37;;
29568;SDS011;16501;51.462;14.346;2023-06-22T13:12:17;15.90;;;7.53;;
29568;SDS011;16501;51.462;14.346;2023-06-22T13:14:42;8.73;;;7.65;;
29568;SDS011;16501;51.462;14.346;2023-06-22T13:17:08;7.93;;;7.22;;
29568;SDS011;16501;51.462;14.346;2023-06-22T13:19:33;11.07;;;7.57;;
29568;SDS011;16501;51.462;14.346;2023-06-22T13:21:59;9.07;;;7.45;;
29568;SDS011;16501;51.462;14.346;2023-06-22T13:24:25;7.90;;;6.88;;
29568;SDS011;16501;51.462;14.346;2023-06-22T13:26:50;8.17;;;7.33;;
29568;SDS011;16501;51.462;14.346;2023-06-22T13:29:15;8.07;;;7.27;;
29568;SDS011;16501;51.462;14.346;2023-06-22T13:31:40;8.00;;;7.20;;
29568;SDS011;16501;51.462;14.346;2023-06-22T13:34:05;7.53;;;6.83;;
29568;SDS011;16501;51.462;14.346;2023-06-22T13:36:31;7.60;;;6.90;;
29568;SDS011;16501;51.462;14.346;2023-06-22T13:38:57;7.90;;;7.07;;
29568;SDS011;16501;51.462;14.346;2023-06-22T13:41:22;8.80;;;7.03;;
29568;SDS011;16501;51.462;14.346;2023-06-22T13:43:47;11.35;;;7.60;;
29568;SDS011;16501;51.462;14.346;2023-06-22T13:46:13;8.35;;;6.80;;
29568;SDS011;16501;51.462;14.346;2023-06-22T13:48:38;8.10;;;6.93;;
29568;SDS011;16501;51.462;14.346;2023-06-22T13:51:03;7.70;;;6.83;;
29568;SDS011;16501;51.462;14.346;2023-06-22T13:53:28;7.53;;;6.80;;
29568;SDS011;16501;51.462;14.346;2023-06-22T13:55:54;10.48;;;6.97;;
29568;SDS011;16501;51.462;14.346;2023-06-22T13:58:20;10.00;;;7.63;;
29568;SDS011;16501;51.462;14.346;2023-06-22T14:00:46;8.23;;;7.05;;
29568;SDS011;16501;51.462;14.346;2023-06-22T14:03:11;8.13;;;7.30;;
29568;SDS011;16501;51.462;14.346;2023-06-22T14:05:36;7.93;;;6.53;;
29568;SDS011;16501;51.462;14.346;2023-06-22T14:08:01;9.93;;;6.30;;
29568;SDS011;16501;51.462;14.346;2023-06-22T14:10:27;6.97;;;6.37;;
29568;SDS011;16501;51.462;14.346;2023-06-22T14:12:52;7.37;;;6.50;;
29568;SDS011;16501;51.462;14.346;2023-06-22T14:15:18;7.60;;;6.80;;
29568;SDS011;16501;51.462;14.346;2023-06-22T14:17:43;9.25;;;7.40;;
29568;SDS011;16501;51.462;14.346;2023-06-22T14:20:08;8.88;;;7.22;;
29568;SDS011;16501;51.462;14.346;2023-06-22T14:22:34;9.02;;;7.38;;